Hovedside
METAR-TAF:

METAR-TAF

Lufthavner :

Kirkenes lufthavn. Høybuktmoen

Kirkenes, Norge

breddegrad: 69-44N, lengdegrad: 029-54E, høyde over havet: 9 m

Gjeldene værobservasjon

Denne rapporten ble laget for 27 minutter siden, klokken 06:20 UTC
Vind 4 kt fra Sør-sørøst
Temperatur -14°C
Luftfuktighet 85%
Trykk 1026 hPa
Sikt: 0500 m
snø

METAR: ENKR 170620Z AUTO 16004KT 0500 R05/P2000N R23/1600D SN BKN001/// OVC003/// M14/M16 Q1026 RESN RMK WIND 731FT VRB02KT

Tid: 07:47 (06:47 UTC)

Varsel

Denne rapporten ble laget for 1 time og 47 minutter siden, klokken 05:00 UTC
Varsel gyldig fra 17. klokken 06 UTC til 17. klokken 15 UTC
Vind 8 kt fra Sør
Sikt 10 km eller mer
Spredte skyer i en høyde av 500 ft
Brutte skyer i en høyde av 1200 ft
Midlertidig
fra 17. klokken 06 UTC til 17. klokken 09 UTC
Sikt: 4000 m
i en høyde av 400 ft
dis

TAF: ENKR 170500Z 1706/1715 18008KT 9999 SCT005 BKN012 TEMPO 1706/1709 4000 BR VV004

Værobservasjoner og værvarsel for over 4000 flyplasser (METAR- og TAF-rapporter).

Tilgjengelige stasjoner er representert av de røde og gule prikkene på kartet.

Hold musepekeren over prikken for å se navnet på stasjonen.

Klikk så for å se værobservasjoner og -varsler.

For å forandre kartet kan du klikke på den grønne knappen med svart kryss for å zoome inn, på den grønne knappen med strek for å zoome ut, eller på de grønne pilene for å se tilstøtende kart.


METAR-TAF: